Time;durP1;ratioP1;P1;durP2;ratioP2;P2;SDS_P1;SDS_P2;PMS_P1;PMS_P2;Temp;Humidity;BMP_temperature;BMP_pressure;BME280_temperature;BME280_humidity;BME280_pressure;Samples;Min_cycle;Max_cycle;Signal;HPM_P1;HPM_P2
2022/04/09 00:02:09;;;;;;;;;;;;;;;;;;4946909;28;19922;-55
2022/04/09 00:04:35;;;;;;;;;;;;;;;;;;4974809;28;25105;-54
2022/04/09 00:07:00;;;;;;;;;;;;;;;;;;4972940;28;20387;-55
2022/04/09 00:09:25;;;;;;;;;;;;;;;;;;4950664;28;19918;-54
2022/04/09 00:11:51;;;;;;;;;;;;;;;;;;4946558;28;19933;-55
2022/04/09 00:14:16;;;;;;;;;;;;;;;;;;4952600;28;24157;-56
2022/04/09 00:16:41;;;;;;;;;;;;;;;;;;4966193;28;20047;-57
2022/04/09 00:19:06;;;;;;;;;;;;;;;;;;4952655;28;24121;-57
2022/04/09 00:21:32;;;;;;;;;;;;;;;;;;4946528;28;20065;-56
2022/04/09 00:23:57;;;;;;;;;;;;;;;;;;4960650;28;20423;-56
2022/04/09 00:26:22;;;;;;;;;;;;;;;;;;4977739;28;20338;-55
2022/04/09 00:28:47;;;;;;;;;;;;;;;;;;4965466;28;19914;-56
2022/04/09 00:31:12;;;;;;;;;;;;;;;;;;4965611;28;19920;-55
2022/04/09 00:33:37;;;;;;;;;;;;;;;;;;4965912;28;20454;-54
2022/04/09 00:36:03;;;;;;;;;;;;;;;;;;4966050;28;19914;-54
2022/04/09 00:38:29;;;;;;;;;;;;;;;;;;4957667;28;20321;-55
2022/04/09 00:40:54;;;;;;;;;;;;;;;;;;4946467;28;19930;-54
2022/04/09 00:43:19;;;;;;;;;;;;;;;;;;4946015;29;20150;-54
2022/04/09 00:45:44;;;;;;;;;;;;;;;;;;4980405;28;19960;-55
2022/04/09 00:48:10;;;;;;;;;;;;;;;;;;4964699;28;19920;-55
2022/04/09 00:50:36;;;;;;;;;;;;;;;;;;4964541;28;19921;-54
2022/04/09 00:53:01;;;;;;;;;;;;;;;;;;4965404;28;19918;-55
2022/04/09 00:58:10;;;;;;;;;;;;;;;;;;4959900;28;20392;-55
2022/04/09 01:00:35;;;;;;;;;;;;;;;;;;4946111;28;20354;-53
2022/04/09 01:03:00;;;;;;;;;;;;;;;;;;4945846;29;20309;-51
2022/04/09 01:05:26;;;;;;;;;;;;;;;;;;4977305;28;19985;-54
2022/04/09 01:07:51;;;;;;;;;;;;;;;;;;4965357;28;25135;-55
2022/04/09 01:10:16;;;;;;;;;;;;;;;;;;4964831;28;19917;-54
2022/04/09 01:12:41;;;;;;;;;;;;;;;;;;4965238;28;19914;-54
2022/04/09 01:15:07;;;;;;;;;;;;;;;;;;4963338;28;19915;-55
2022/04/09 01:17:32;;;;;;;;;;;;;;;;;;4963952;28;20004;-55
2022/04/09 01:19:57;;;;;;;;;;;;;;;;;;4945322;29;19917;-55
2022/04/09 01:22:22;;;;;;;;;;;;;;;;;;4945444;29;19930;-54
2022/04/09 01:24:47;;;;;;;;;;;;;;;;;;4972152;28;19909;-54
2022/04/09 01:27:12;;;;;;;;;;;;;;;;;;4969871;28;19914;-54
2022/04/09 01:29:38;;;;;;;;;;;;;;;;;;4964221;28;19910;-55
2022/04/09 01:32:03;;;;;;;;;;;;;;;;;;4964591;28;19932;-54
2022/04/09 01:34:28;;;;;;;;;;;;;;;;;;4963779;28;24119;-55
2022/04/09 01:36:53;;;;;;;;;;;;;;;;;;4967180;28;24074;-54
2022/04/09 01:39:18;;;;;;;;;;;;;;;;;;4961723;28;19973;-54
2022/04/09 01:41:44;;;;;;;;;;;;;;;;;;4950164;28;19907;-52
2022/04/09 01:44:09;;;;;;;;;;;;;;;;;;4959050;28;20300;-54
2022/04/09 01:46:34;;;;;;;;;;;;;;;;;;4978583;28;25056;-53
2022/04/09 01:48:59;;;;;;;;;;;;;;;;;;4967644;28;19910;-54
2022/04/09 01:51:24;;;;;;;;;;;;;;;;;;4967573;28;19921;-52
2022/04/09 01:53:49;;;;;;;;;;;;;;;;;;4967391;28;19910;-54
2022/04/09 01:56:15;;;;;;;;;;;;;;;;;;4967495;28;24166;-55
2022/04/09 01:58:40;;;;;;;;;;;;;;;;;;4958051;28;19956;-54
2022/04/09 02:01:06;;;;;;;;;;;;;;;;;;4948374;29;19911;-54
2022/04/09 02:03:31;;;;;;;;;;;;;;;;;;4948008;28;20005;-54
2022/04/09 02:05:56;;;;;;;;;;;;;;;;;;4983141;28;19977;-54
2022/04/09 02:08:21;;;;;;;;;;;;;;;;;;4967706;28;20320;-54
2022/04/09 02:10:47;;;;;;;;;;;;;;;;;;4967482;28;20064;-54
2022/04/09 02:13:12;;;;;;;;;;;;;;;;;;4966764;28;24095;-53
2022/04/09 02:15:37;;;;;;;;;;;;;;;;;;4966541;28;24084;-53
2022/04/09 02:18:02;;;;;;;;;;;;;;;;;;4962484;28;24083;-55
2022/04/09 02:20:27;;;;;;;;;;;;;;;;;;4948257;29;19914;-54
2022/04/09 02:22:53;;;;;;;;;;;;;;;;;;4948976;28;20390;-54
2022/04/09 02:25:18;;;;;;;;;;;;;;;;;;4980919;28;20381;-55
2022/04/09 02:27:43;;;;;;;;;;;;;;;;;;4968675;28;19952;-55
2022/04/09 02:30:08;;;;;;;;;;;;;;;;;;4967280;28;20347;-54
2022/04/09 02:32:33;;;;;;;;;;;;;;;;;;4966516;28;24121;-55
2022/04/09 02:34:58;;;;;;;;;;;;;;;;;;4966525;28;19914;-54
2022/04/09 02:37:24;;;;;;;;;;;;;;;;;;4967019;28;20386;-54
2022/04/09 02:39:49;;;;;;;;;;;;;;;;;;4948019;28;19914;-54
2022/04/09 02:42:14;;;;;;;;;;;;;;;;;;4947993;28;19911;-54
2022/04/09 02:44:39;;;;;;;;;;;;;;;;;;4965695;28;19952;-54
2022/04/09 02:47:04;;;;;;;;;;;;;;;;;;4972403;28;19910;-54
2022/04/09 02:49:29;;;;;;;;;;;;;;;;;;4966923;28;20550;-54
2022/04/09 02:51:54;;;;;;;;;;;;;;;;;;4965961;28;19930;-54
2022/04/09 02:54:20;;;;;;;;;;;;;;;;;;4966169;28;24151;-54
2022/04/09 02:56:46;;;;;;;;;;;;;;;;;;4966293;28;25139;-53
2022/04/09 02:59:12;;;;;;;;;;;;;;;;;;4953112;28;25071;-54
2022/04/09 03:01:37;;;;;;;;;;;;;;;;;;4946790;28;19937;-54
2022/04/09 03:04:03;;;;;;;;;;;;;;;;;;4954811;28;25142;-54
2022/04/09 03:06:28;;;;;;;;;;;;;;;;;;4978225;28;20049;-54
2022/04/09 03:08:53;;;;;;;;;;;;;;;;;;4966263;28;24081;-54
2022/04/09 03:11:19;;;;;;;;;;;;;;;;;;4965964;28;19957;-54
2022/04/09 03:13:44;;;;;;;;;;;;;;;;;;4965834;28;19910;-54
2022/04/09 03:16:09;;;;;;;;;;;;;;;;;;4963706;28;24082;-54
2022/04/09 03:18:34;;;;;;;;;;;;;;;;;;4957474;28;19926;-55
2022/04/09 03:20:59;;;;;;;;;;;;;;;;;;4946175;29;19920;-53
2022/04/09 03:23:24;;;;;;;;;;;;;;;;;;4951668;28;24162;-54
2022/04/09 03:25:49;;;;;;;;;;;;;;;;;;4980721;28;25163;-53
2022/04/09 03:28:15;;;;;;;;;;;;;;;;;;4965668;28;19917;-54
2022/04/09 03:30:41;;;;;;;;;;;;;;;;;;4958503;28;25055;-53
2022/04/09 03:33:06;;;;;;;;;;;;;;;;;;4957871;28;19921;-53
2022/04/09 03:35:31;;;;;;;;;;;;;;;;;;4964813;28;19921;-52
2022/04/09 03:37:56;;;;;;;;;;;;;;;;;;4961856;28;24075;-54
2022/04/09 03:40:21;;;;;;;;;;;;;;;;;;4945788;29;24079;-54
2022/04/09 03:42:46;;;;;;;;;;;;;;;;;;4951416;28;20276;-51
2022/04/09 03:45:12;;;;;;;;;;;;;;;;;;4965124;28;25097;-54
2022/04/09 03:47:37;;;;;;;1453.50;999.90;;;;;;;;;;4965361;28;20135;-52
2022/04/09 03:50:03;;;;;;;1580.80;999.90;;;;;;;;;;4966044;28;20046;-52
2022/04/09 03:52:28;;;;;;;1655.40;999.90;;;;;;;;;;4965644;28;20248;-51
2022/04/09 03:54:53;;;;;;;;;;;;;;;;;;4965486;28;19910;-53
2022/04/09 03:57:19;;;;;;;;;;;;;;;;;;4964434;28;20347;-53
2022/04/09 03:59:44;;;;;;;1649.20;999.90;;;;;;;;;;4956318;28;25163;-52
2022/04/09 04:02:10;;;;;;;1654.75;999.90;;;;;;;;;;4952151;28;20114;-53
2022/04/09 04:04:35;;;;;;;;;;;;;;;;;;4953431;28;19922;-53
2022/04/09 04:07:00;;;;;;;;;;;;;;;;;;4952449;28;25131;-53
2022/04/09 04:09:25;;;;;;;;;;;;;;;;;;4952774;28;20520;-54
2022/04/09 04:11:50;;;;;;;;;;;;;;;;;;4962515;28;24074;-54
2022/04/09 04:14:15;;;;;;;;;;;;;;;;;;4957184;28;25117;-53
2022/04/09 04:16:40;;;;;;;;;;;;;;;;;;4945727;28;20124;-54
2022/04/09 04:19:06;;;;;;;;;;;;;;;;;;4946122;28;20520;-53
2022/04/09 04:21:31;;;;;;;;;;;;;;;;;;4947326;28;20760;-55
2022/04/09 04:23:56;;;;;;;;;;;;;;;;;;4951634;28;24081;-54
2022/04/09 04:26:21;;;;;;;;;;;;;;;;;;4950531;28;19964;-53
2022/04/09 04:28:51;;;;;;;;;;;;;;;;;;4964611;28;20036;-55
2022/04/09 04:31:16;;;;;;;;;;;;;;;;;;4964718;28;20382;-55
2022/04/09 04:33:41;;;;;;;;;;;;;;;;;;4963112;28;19910;-54
2022/04/09 04:36:06;;;;;;;;;;;;;;;;;;4948050;28;19930;-54
2022/04/09 04:38:31;;;;;;;;;;;;;;;;;;4963898;28;20352;-53
2022/04/09 04:40:56;;;;;;;;;;;;;;;;;;4963790;28;20069;-55
2022/04/09 04:43:22;;;;;;;;;;;;;;;;;;4959408;28;19921;-54
2022/04/09 04:45:47;;;;;;;;;;;;;;;;;;4960353;28;24110;-55
2022/04/09 04:48:12;;;;;;;;;;;;;;;;;;4960785;28;19925;-56
2022/04/09 04:50:40;;;;;;;;;;;;;;;;;;4963375;28;24078;-57
2022/04/09 04:53:05;;;;;;;;;;;;;;;;;;4960958;28;20027;-54
2022/04/09 04:55:30;;;;;;;;;;;;;;;;;;4962582;28;19921;-56
2022/04/09 04:57:55;;;;;;;;;;;;;;;;;;4957978;28;20061;-55
2022/04/09 05:00:20;;;;;;;;;;;;;;;;;;4953920;28;20008;-54
2022/04/09 05:02:46;;;;;;;;;;;;;;;;;;4960682;28;19922;-55
2022/04/09 05:05:11;;;;;;;;;;;;;;;;;;4955680;28;25101;-55
2022/04/09 05:07:36;;;;;;;;;;;;;;;;;;4945727;28;24059;-54
2022/04/09 05:10:01;;;;;;;;;;;;;;;;;;4956406;28;19914;-54
2022/04/09 05:12:26;;;;;;;;;;;;;;;;;;4948557;28;24082;-55
2022/04/09 05:14:51;;;;;;;;;;;;;;;;;;4959463;28;19914;-56
2022/04/09 05:17:16;;;;;;;;;;;;;;;;;;4965076;28;20005;-53
2022/04/09 05:19:41;;;;;;;;;;;;;;;;;;4966949;28;19914;-55
2022/04/09 05:22:07;;;;;;;;;;;;;;;;;;4967584;28;19921;-55
2022/04/09 05:24:32;;;;;;;;;;;;;;;;;;4975228;28;19928;-57
2022/04/09 05:26:57;;;;;;;;;;;;;;;;;;4976765;28;19920;-54
2022/04/09 05:29:22;;;;;;;;;;;;;;;;;;4967535;28;25097;-53
2022/04/09 05:31:47;;;;;;;;;;;;;;;;;;4967957;28;19910;-55
2022/04/09 05:34:12;;;;;;;;;;;;;;;;;;4967476;28;19969;-53
2022/04/09 05:36:38;;;;;;;;;;;;;;;;;;4967986;28;19914;-55
2022/04/09 05:39:03;;;;;;;;;;;;;;;;;;4967789;28;20336;-53
2022/04/09 05:41:28;;;;;;;;;;;;;;;;;;4967883;28;25061;-53
2022/04/09 05:43:54;;;;;;;;;;;;;;;;;;4970076;28;20405;-54
2022/04/09 05:46:22;;;;;;;;;;;;;;;;;;4962371;28;24185;-52
2022/04/09 05:48:47;;;;;;;;;;;;;;;;;;4958331;28;19989;-56
2022/04/09 05:51:12;;;;;;;;;;;;;;;;;;4954265;28;20012;-54
2022/04/09 05:53:37;;;;;;;;;;;;;;;;;;4967060;28;19932;-55
2022/04/09 05:56:02;;;;;;;;;;;;;;;;;;4966382;28;24057;-53
2022/04/09 05:58:27;;;;;;;;;;;;;;;;;;4969469;28;25068;-55
2022/04/09 06:00:53;;;;;;;;;;;;;;;;;;4966396;28;19910;-54
2022/04/09 06:03:18;;;;;;;;;;;;;;;;;;4967204;28;20472;-54
2022/04/09 06:05:43;;;;;;;;;;;;;;;;;;4966545;28;25100;-54
2022/04/09 06:08:08;;;;;;;;;;;;;;;;;;4971012;28;20309;-54
2022/04/09 06:10:33;;;;;;;;;;;;;;;;;;4969593;28;19910;-53
2022/04/09 06:12:58;;;;;;;;;;;;;;;;;;4970295;28;19910;-56
2022/04/09 06:15:23;;;;;;;;;;;;;;;;;;4969388;28;24107;-54
2022/04/09 06:17:49;;;;;;;;;;;;;;;;;;4968044;28;19946;-54
2022/04/09 06:20:15;;;;;;;;;;;;;;;;;;4968300;28;19906;-54
2022/04/09 06:22:40;;;;;;;;;;;;;;;;;;4967444;28;24151;-55
2022/04/09 06:25:05;;;;;;;;;;;;;;;;;;4967919;28;24149;-56
2022/04/09 06:27:33;;;;;;;;;;;;;;;;;;4968134;28;25090;-57
2022/04/09 06:29:58;;;;;;;;;;;;;;;;;;4967816;28;19902;-53
2022/04/09 06:32:23;;;;;;;;;;;;;;;;;;4969038;28;25058;-56
2022/04/09 06:34:48;;;;;;;;;;;;;;;;;;4971020;28;20381;-57
2022/04/09 06:37:13;;;;;;;;;;;;;;;;;;4970747;28;20005;-57
2022/04/09 06:39:38;;;;;;;;;;;;;;;;;;4970053;28;25142;-57
2022/04/09 06:42:03;;;;;;;;;;;;;;;;;;4970342;28;19910;-56
2022/04/09 06:44:29;;;;;;;;;;;;;;;;;;4952220;28;25056;-55
2022/04/09 06:46:54;;;;;;;;;;;;;;;;;;4970413;28;19910;-56
2022/04/09 06:49:19;;;;;;;;;;;;;;;;;;4970271;28;25144;-54
2022/04/09 06:51:44;;;;;;;;;;;;;;;;;;4970091;28;20269;-55
2022/04/09 06:54:09;;;;;;;;;;;;;;;;;;4970809;28;20336;-55
2022/04/09 06:56:36;;;;;;;;;;;;;;;;;;4971190;28;19902;-55
2022/04/09 06:59:02;;;;;;;1700.80;999.90;;;;;;;;;;4970639;28;19907;-54
2022/04/09 07:01:27;;;;;;;;;;;;;;;;;;4970859;28;20042;-56
2022/04/09 07:03:52;;;;;;;;;;;;;;;;;;4970922;28;25053;-56
2022/04/09 07:06:17;;;;;;;;;;;;;;;;;;4971108;28;19906;-54
2022/04/09 07:08:42;;;;;;;;;;;;;;;;;;4970659;28;24098;-55
2022/04/09 07:11:08;;;;;;;1711.70;999.90;;;;;;;;;;4970632;28;25071;-55
2022/04/09 07:13:33;;;;;;;1695.40;999.90;;;;;;;;;;4953358;28;19925;-55
2022/04/09 07:15:58;;;;;;;;;;;;;;;;;;4970769;28;20030;-54
2022/04/09 07:18:23;;;;;;;;;;;;;;;;;;4953234;28;19929;-55
2022/04/09 07:20:48;;;;;;;;;;;;;;;;;;4970822;28;20497;-56
2022/04/09 07:23:13;;;;;;;;;;;;;;;;;;4969676;28;20062;-55
2022/04/09 07:25:39;;;;;;;1697.30;999.90;;;;;;;;;;4970593;28;20093;-54
2022/04/09 07:28:04;;;;;;;;;;;;;;;;;;4953242;28;20132;-53
2022/04/09 07:30:29;;;;;;;;;;;;;;;;;;4970160;28;19950;-54
2022/04/09 07:32:56;;;;;;;;;;;;;;;;;;4969158;28;19974;-55
2022/04/09 07:35:21;;;;;;;1696.90;999.90;;;;;;;;;;4970309;28;25153;-54
2022/04/09 07:37:47;;;;;;;1711.40;999.90;;;;;;;;;;4952642;28;19943;-55
2022/04/09 07:40:12;;;;;;;1688.90;999.90;;;;;;;;;;4969983;28;20624;-55
2022/04/09 07:42:38;;;;;;;;;;;;;;;;;;4969706;28;20042;-55
2022/04/09 07:45:03;;;;;;;;;;;;;;;;;;4970078;28;20249;-54
2022/04/09 07:47:28;;;;;;;;;;;;;;;;;;4969052;28;25160;-55
2022/04/09 07:49:54;;;;;;;;;;;;;;;;;;4969843;28;20044;-54
2022/04/09 07:52:19;;;;;;;;;;;;;;;;;;4969428;28;25153;-55
2022/04/09 07:54:44;;;;;;;;;;;;;;;;;;4970198;28;19906;-54
2022/04/09 07:57:09;;;;;;;;;;;;;;;;;;4969047;28;19993;-55
2022/04/09 07:59:35;;;;;;;;;;;;;;;;;;4969755;28;19906;-56
2022/04/09 08:02:00;;;;;;;;;;;;;;;;;;4969711;28;19905;-55
2022/04/09 08:04:25;;;;;;;;;;;;;;;;;;4969501;28;20052;-55
2022/04/09 08:06:50;;;;;;;;;;;;;;;;;;4969834;28;20101;-54
2022/04/09 08:09:15;;;;;;;;;;;;;;;;;;4969111;28;24091;-54
2022/04/09 08:11:40;;;;;;;;;;;;;;;;;;4969251;28;20489;-58
2022/04/09 08:14:05;;;;;;;;;;;;;;;;;;4969576;28;20128;-55
2022/04/09 08:16:31;;;;;;;;;;;;;;;;;;4969328;28;20322;-59
2022/04/09 08:18:56;;;;;;;;;;;;;;;;;;4969041;28;20365;-57
2022/04/09 08:21:21;;;;;;;;;;;;;;;;;;4968720;28;25071;-58
2022/04/09 08:23:49;;;;;;;;;;;;;;;;;;4968874;28;20275;-59
2022/04/09 08:26:14;;;;;;;;;;;;;;;;;;4969608;28;20389;-57
2022/04/09 08:28:39;;;;;;;;;;;;;;;;;;4969197;28;20034;-55
2022/04/09 08:31:06;;;;;;;;;;;;;;;;;;4969339;28;20739;-60
2022/04/09 08:33:31;;;;;;;;;;;;;;;;;;4968850;28;25118;-60
2022/04/09 08:35:56;;;;;;;;;;;;;;;;;;4968757;28;20288;-59
2022/04/09 08:38:21;;;;;;;;;;;;;;;;;;4968721;28;24084;-57
2022/04/09 08:40:47;;;;;;;1720.60;999.90;;;;;;;;;;4969180;28;24079;-58
2022/04/09 08:43:12;;;;;;;;;;;;;;;;;;4968838;28;25076;-58
2022/04/09 08:45:37;;;;;;;;;;;;;;;;;;4969352;28;20116;-59
2022/04/09 08:48:02;;;;;;;;;;;;;;;;;;4968900;28;19913;-60
2022/04/09 08:50:27;;;;;;;;;;;;;;;;;;4969247;28;24076;-56
2022/04/09 08:52:52;;;;;;;;;;;;;;;;;;4969050;28;24065;-60
2022/04/09 08:55:18;;;;;;;;;;;;;;;;;;4968843;28;20262;-61
2022/04/09 08:57:43;;;;;;;;;;;;;;;;;;4968410;28;24077;-55
2022/04/09 09:00:10;;;;;;;;;;;;;;;;;;4967918;28;19906;-53
2022/04/09 09:02:35;;;;;;;;;;;;;;;;;;4968694;28;24080;-57
2022/04/09 09:05:00;;;;;;;;;;;;;;;;;;4969429;28;19936;-55
2022/04/09 09:07:25;;;;;;;;;;;;;;;;;;4968891;28;20320;-57
2022/04/09 09:09:51;;;;;;;;;;;;;;;;;;4969035;28;20232;-53
2022/04/09 09:12:16;;;;;;;;;;;;;;;;;;4968316;28;24150;-56
2022/04/09 09:14:41;;;;;;;;;;;;;;;;;;4968164;28;20278;-56
2022/04/09 09:17:06;;;;;;;;;;;;;;;;;;4967269;28;24078;-61
2022/04/09 09:19:31;;;;;;;;;;;;;;;;;;4967349;28;25099;-57
2022/04/09 09:21:57;;;;;;;;;;;;;;;;;;4968671;28;19906;-55
2022/04/09 09:24:22;;;;;;;;;;;;;;;;;;4968916;28;20056;-58
2022/04/09 09:26:47;;;;;;;;;;;;;;;;;;4969006;28;20118;-56
2022/04/09 09:29:23;;;;;;;1731.55;999.90;;;;;;;;;;4968743;28;24097;-62
2022/04/09 09:31:50;;;;;;;;;;;;;;;;;;4968846;28;19949;-55
2022/04/09 09:34:15;;;;;;;;;;;;;;;;;;4968887;28;24121;-57
2022/04/09 09:36:42;;;;;;;;;;;;;;;;;;4968961;28;20131;-56
2022/04/09 09:39:07;;;;;;;;;;;;;;;;;;4968661;28;24148;-56
2022/04/09 09:41:32;;;;;;;;;;;;;;;;;;4968813;28;20354;-54
2022/04/09 09:43:57;;;;;;;;;;;;;;;;;;4968958;28;20208;-54
2022/04/09 09:46:22;;;;;;;;;;;;;;;;;;4968590;28;19941;-54
2022/04/09 09:48:47;;;;;;;;;;;;;;;;;;4968914;28;20048;-56
2022/04/09 09:51:12;;;;;;;;;;;;;;;;;;4968812;28;20472;-55
2022/04/09 09:53:37;;;;;;;;;;;;;;;;;;4968602;28;24151;-54
2022/04/09 09:56:02;;;;;;;;;;;;;;;;;;4968163;28;25116;-54
2022/04/09 09:58:28;;;;;;;;;;;;;;;;;;4971852;28;19906;-55
2022/04/09 10:00:53;;;;;;;;;;;;;;;;;;4972205;28;19925;-55
2022/04/09 10:03:18;;;;;;;;;;;;;;;;;;4971992;28;24143;-57
2022/04/09 10:05:43;;;;;;;;;;;;;;;;;;4971574;28;20116;-56
2022/04/09 10:08:08;;;;;;;;;;;;;;;;;;4972046;28;20220;-57
2022/04/09 10:10:33;;;;;;;;;;;;;;;;;;4971459;28;20028;-57
2022/04/09 10:12:59;;;;;;;;;;;;;;;;;;4971060;28;19906;-56
2022/04/09 10:15:24;;;;;;;;;;;;;;;;;;4972250;28;20105;-56
2022/04/09 10:17:51;;;;;;;;;;;;;;;;;;4971639;28;20060;-56
2022/04/09 10:20:19;;;;;;;;;;;;;;;;;;4970967;28;24109;-56
2022/04/09 10:22:45;;;;;;;;;;;;;;;;;;4971247;28;19918;-55
2022/04/09 10:25:10;;;;;;;;;;;;;;;;;;4970938;28;19921;-56
2022/04/09 10:27:37;;;;;;;;;;;;;;;;;;4970553;28;24099;-56
2022/04/09 10:30:05;;;;;;;;;;;;;;;;;;4971136;28;19906;-58
2022/04/09 10:32:30;;;;;;;;;;;;;;;;;;4971113;28;20468;-56
2022/04/09 10:34:57;;;;;;;1694.50;999.90;;;;;;;;;;4971522;28;20091;-55
2022/04/09 10:37:22;;;;;;;;;;;;;;;;;;4970933;28;20092;-56
2022/04/09 10:39:48;;;;;;;;;;;;;;;;;;4971152;28;20190;-56
2022/04/09 10:42:13;;;;;;;;;;;;;;;;;;4971444;28;19906;-56
2022/04/09 10:44:38;;;;;;;;;;;;;;;;;;4970819;28;20049;-56
2022/04/09 10:47:03;;;;;;;;;;;;;;;;;;4970849;28;24059;-55
2022/04/09 10:49:29;;;;;;;;;;;;;;;;;;4970895;28;20121;-55
2022/04/09 10:51:55;;;;;;;;;;;;;;;;;;4971219;28;20366;-55
2022/04/09 10:54:20;;;;;;;;;;;;;;;;;;4971479;28;19952;-56
2022/04/09 10:56:46;;;;;;;;;;;;;;;;;;4970549;28;20047;-56
2022/04/09 10:59:12;;;;;;;;;;;;;;;;;;4970161;28;19913;-56
2022/04/09 11:01:38;;;;;;;;;;;;;;;;;;4970677;28;25120;-56
2022/04/09 11:04:03;;;;;;;;;;;;;;;;;;4971377;28;20659;-55
2022/04/09 11:06:28;;;;;;;;;;;;;;;;;;4971698;28;19929;-55
2022/04/09 11:08:53;;;;;;;;;;;;;;;;;;4970529;28;20000;-56
2022/04/09 11:11:18;;;;;;;;;;;;;;;;;;4970971;28;24091;-55
2022/04/09 11:13:43;;;;;;;;;;;;;;;;;;4970679;28;24089;-54
2022/04/09 11:16:08;;;;;;;;;;;;;;;;;;4970696;28;19968;-56
2022/04/09 11:18:33;;;;;;;;;;;;;;;;;;4970094;28;24074;-56
2022/04/09 11:20:59;;;;;;;;;;;;;;;;;;4970982;28;24076;-56
2022/04/09 11:23:25;;;;;;;;;;;;;;;;;;4970758;28;19922;-55
2022/04/09 11:25:50;;;;;;;;;;;;;;;;;;4970637;28;20241;-55
2022/04/09 11:28:19;;;;;;;;;;;;;;;;;;4970606;28;24164;-54
2022/04/09 11:30:44;;;;;;;;;;;;;;;;;;4970122;28;20341;-55
2022/04/09 11:33:09;;;;;;;;;;;;;;;;;;4970043;28;20739;-56
2022/04/09 11:35:34;;;;;;;;;;;;;;;;;;4970695;28;25143;-55
2022/04/09 11:37:59;;;;;;;;;;;;;;;;;;4970726;28;20076;-55
2022/04/09 11:40:24;;;;;;;;;;;;;;;;;;4969935;28;20095;-55
2022/04/09 11:42:49;;;;;;;;;;;;;;;;;;4970379;28;24078;-55
2022/04/09 11:45:15;;;;;;;;;;;;;;;;;;4969793;28;20044;-55
2022/04/09 11:47:40;;;;;;;;;;;;;;;;;;4969610;28;19993;-57
2022/04/09 11:50:05;;;;;;;;;;;;;;;;;;4969727;28;20239;-55
2022/04/09 11:52:30;;;;;;;;;;;;;;;;;;4969122;28;19918;-55
2022/04/09 11:54:55;;;;;;;;;;;;;;;;;;4969270;28;19906;-55
2022/04/09 11:57:20;;;;;;;;;;;;;;;;;;4969107;28;20271;-56
2022/04/09 11:59:46;;;;;;;;;;;;;;;;;;4969800;28;19906;-56
2022/04/09 12:02:11;;;;;;;;;;;;;;;;;;4969213;28;19906;-55
2022/04/09 12:04:36;;;;;;;;;;;;;;;;;;4951677;28;19914;-55
2022/04/09 12:07:01;;;;;;;;;;;;;;;;;;4968264;28;19906;-55
2022/04/09 12:09:26;;;;;;;;;;;;;;;;;;4968362;28;19906;-55
2022/04/09 12:11:52;;;;;;;;;;;;;;;;;;4968488;28;20396;-56
2022/04/09 12:14:17;;;;;;;;;;;;;;;;;;4969252;28;19993;-55
2022/04/09 12:16:42;;;;;;;;;;;;;;;;;;4969441;28;19910;-55
2022/04/09 12:19:07;;;;;;;;;;;;;;;;;;4968963;28;19913;-55
2022/04/09 12:21:32;;;;;;;;;;;;;;;;;;4968941;28;24171;-55
2022/04/09 12:23:59;;;;;;;;;;;;;;;;;;4968945;28;19920;-55
2022/04/09 12:26:24;;;;;;;;;;;;;;;;;;4969175;28;19906;-54
2022/04/09 12:28:49;;;;;;;;;;;;;;;;;;4969521;28;20392;-57
2022/04/09 12:31:14;;;;;;;;;;;;;;;;;;4969036;28;24067;-57
2022/04/09 12:33:39;;;;;;;;;;;;;;;;;;4969649;28;19913;-55
2022/04/09 12:36:04;;;;;;;;;;;;;;;;;;4969114;28;20034;-55
2022/04/09 12:38:30;;;;;;;;;;;;;;;;;;4969002;28;25171;-56
2022/04/09 12:40:55;;;;;;;;;;;;;;;;;;4968914;28;20321;-55
2022/04/09 12:43:20;;;;;;;;;;;;;;;;;;4968762;28;20356;-56
2022/04/09 12:45:45;;;;;;;;;;;;;;;;;;4969042;28;24071;-55
2022/04/09 12:48:11;;;;;;;;;;;;;;;;;;4968426;28;19910;-55
2022/04/09 12:50:37;;;;;;;;;;;;;;;;;;4968123;28;19906;-54
2022/04/09 12:53:02;;;;;;;;;;;;;;;;;;4968317;28;24064;-55
2022/04/09 12:55:27;;;;;;;;;;;;;;;;;;4968398;28;20246;-56
2022/04/09 12:57:52;;;;;;;;;;;;;;;;;;4968216;28;19910;-56
2022/04/09 13:00:17;;;;;;;;;;;;;;;;;;4967470;28;19906;-55
2022/04/09 13:02:42;;;;;;;;;;;;;;;;;;4967616;28;24064;-55
2022/04/09 13:05:07;;;;;;;;;;;;;;;;;;4968579;28;20314;-54
2022/04/09 13:07:33;;;;;;;;;;;;;;;;;;4967784;28;25070;-54
2022/04/09 13:09:58;;;;;;;;;;;;;;;;;;4968744;28;19913;-55
2022/04/09 13:12:23;;;;;;;;;;;;;;;;;;4968179;28;24119;-54
2022/04/09 13:14:48;;;;;;;;;;;;;;;;;;4967479;28;19965;-54
2022/04/09 13:17:13;;;;;;;;;;;;;;;;;;4967851;28;20240;-55
2022/04/09 13:19:38;;;;;;;;;;;;;;;;;;4968160;28;19910;-55
2022/04/09 13:22:03;;;;;;;;;;;;;;;;;;4968472;28;19902;-54
2022/04/09 13:24:29;;;;;;;;;;;;;;;;;;4968562;28;20376;-55
2022/04/09 13:26:54;;;;;;;;;;;;;;;;;;4968804;28;20298;-55
2022/04/09 13:29:19;;;;;;;;;;;;;;;;;;4968494;28;20108;-54
2022/04/09 13:31:46;;;;;;;;;;;;;;;;;;4970047;28;19913;-55
2022/04/09 13:34:14;;;;;;;;;;;;;;;;;;4972390;28;20051;-55
2022/04/09 13:36:39;;;;;;;;;;;;;;;;;;4972059;28;19906;-54
2022/04/09 13:39:04;;;;;;;;;;;;;;;;;;4972277;28;19906;-55
2022/04/09 13:41:31;;;;;;;;;;;;;;;;;;4971333;28;24085;-54
2022/04/09 13:43:56;;;;;;;;;;;;;;;;;;4971295;28;19914;-55
2022/04/09 13:46:21;;;;;;;;;;;;;;;;;;4971358;28;24080;-57
2022/04/09 13:48:47;;;;;;;;;;;;;;;;;;4972207;28;19906;-53
2022/04/09 13:51:14;;;;;;;;;;;;;;;;;;4971257;28;19918;-54
2022/04/09 13:53:39;;;;;;;;;;;;;;;;;;4971444;28;19946;-54
2022/04/09 13:56:04;;;;;;;;;;;;;;;;;;4971025;28;25058;-54
2022/04/09 13:58:29;;;;;;;;;;;;;;;;;;4970318;28;24145;-52
2022/04/09 14:00:54;;;;;;;;;;;;;;;;;;4971212;28;19910;-54
2022/04/09 14:03:19;;;;;;;;;;;;;;;;;;4970519;28;19914;-55
2022/04/09 14:05:44;;;;;;;;;;;;;;;;;;4971185;28;24091;-54
2022/04/09 14:08:10;;;;;;;;;;;;;;;;;;4971403;28;24069;-53
2022/04/09 14:10:35;;;;;;;;;;;;;;;;;;4970967;28;19906;-54
2022/04/09 14:13:00;;;;;;;;;;;;;;;;;;4971560;28;20054;-54
2022/04/09 14:15:25;;;;;;;;;;;;;;;;;;4971299;28;19937;-55
2022/04/09 14:17:51;;;;;;;;;;;;;;;;;;4970527;28;24156;-53
2022/04/09 14:20:17;;;;;;;;;;;;;;;;;;4970443;28;19906;-53
2022/04/09 14:22:42;;;;;;;;;;;;;;;;;;4970211;28;24062;-55
2022/04/09 14:25:07;;;;;;;;;;;;;;;;;;4970313;28;20389;-55
2022/04/09 14:27:32;;;;;;;;;;;;;;;;;;4970022;28;24171;-55
2022/04/09 14:29:57;;;;;;;;;;;;;;;;;;4970271;28;25170;-54
2022/04/09 14:32:22;;;;;;;;;;;;;;;;;;4970705;28;20486;-55
2022/04/09 14:34:48;;;;;;;;;;;;;;;;;;4970228;28;25155;-55
2022/04/09 14:37:13;;;;;;;;;;;;;;;;;;4970337;28;19913;-53
2022/04/09 14:39:38;;;;;;;;;;;;;;;;;;4970229;28;20243;-54
2022/04/09 14:42:03;;;;;;;;;;;;;;;;;;4970254;28;24073;-54
2022/04/09 14:44:29;;;;;;;;;;;;;;;;;;4970237;28;19921;-55
2022/04/09 14:46:56;;;;;;;;;;;;;;;;;;4970342;28;19906;-54
2022/04/09 14:49:22;;;;;;;;;;;;;;;;;;4969929;28;24086;-53
2022/04/09 14:51:47;;;;;;;;;;;;;;;;;;4969972;28;20057;-54
2022/04/09 14:54:12;;;;;;;;;;;;;;;;;;4969787;28;19925;-55
2022/04/09 14:56:37;;;;;;;;;;;;;;;;;;4969823;28;19938;-55
2022/04/09 14:59:02;;;;;;;;;;;;;;;;;;4969574;28;24072;-55
2022/04/09 15:01:28;;;;;;;;;;;;;;;;;;4969807;28;20008;-55
2022/04/09 15:03:53;;;;;;;;;;;;;;;;;;4969460;28;20083;-54
2022/04/09 15:06:18;;;;;;;;;;;;;;;;;;4970931;28;19996;-54
2022/04/09 15:08:43;;;;;;;;;;;;;;;;;;4970831;28;24111;-54
2022/04/09 15:11:08;;;;;;;;;;;;;;;;;;4971024;28;19956;-54
2022/04/09 15:13:33;;;;;;;;;;;;;;;;;;4971784;28;19906;-54
2022/04/09 15:16:27;;;;;;;1653.45;999.90;;;;;;;;;;5078148;27;20423;-56
2022/04/09 15:18:53;;;;;;;1674.80;999.90;;;;;;;;;;5081504;28;19912;-57
2022/04/09 15:21:19;;;;;;;1688.80;999.90;;;;;;;;;;5080638;28;20239;-57
2022/04/09 15:23:44;;;;;;;1688.55;999.90;;;;;;;;;;5080869;28;20392;-55
2022/04/09 15:26:09;;;;;;;1686.40;999.90;;;;;;;;;;5080418;28;19915;-56
2022/04/09 15:28:35;;;;;;;1699.30;999.90;;;;;;;;;;5079549;28;20232;-55
2022/04/09 15:31:01;;;;;;;1690.95;999.90;;;;;;;;;;5081366;28;19974;-55
2022/04/09 15:33:26;;;;;;;1696.60;999.90;;;;;;;;;;5080693;28;20482;-54
2022/04/09 15:35:52;;;;;;;1713.05;999.90;;;;;;;;;;5080881;28;20019;-55
2022/04/09 15:38:18;;;;;;;1709.10;999.90;;;;;;;;;;5079909;28;20095;-55
2022/04/09 15:40:43;;;;;;;1721.85;999.90;;;;;;;;;;5080896;28;20066;-55
2022/04/09 15:43:08;;;;;;;1726.50;999.90;;;;;;;;;;5078771;28;20221;-55
2022/04/09 15:45:33;;;;;;;1725.30;999.90;;;;;;;;;;5080936;28;20331;-55
2022/04/09 15:47:58;;;;;;;;;;;;;;;;;;5080395;28;24138;-55
2022/04/09 15:50:23;;;;;;;;;;;;;;;;;;5078483;28;19966;-56
2022/04/09 15:52:49;;;;;;;;;;;;;;;;;;5072734;28;20044;-55
2022/04/09 15:55:14;;;;;;;1731.80;999.90;;;;;;;;;;5079837;28;20363;-57
2022/04/09 15:57:40;;;;;;;1721.00;999.90;;;;;;;;;;5079961;28;24063;-55
2022/04/09 16:00:06;;;;;;;;;;;;;;;;;;5079219;28;25121;-55
2022/04/09 16:02:34;;;;;;;;;;;;;;;;;;5079713;28;20404;-56
2022/04/09 16:05:00;;;;;;;;;;;;;;;;;;5079707;28;24085;-56
2022/04/09 16:07:25;;;;;;;;;;;;;;;;;;5079799;28;19968;-53
2022/04/09 16:09:50;;;;;;;;;;;;;;;;;;5080140;28;20116;-55
2022/04/09 16:12:16;;;;;;;1722.10;999.90;;;;;;;;;;5080144;28;20365;-56
2022/04/09 16:14:42;;;;;;;;;;;;;;;;;;5078277;28;20061;-58
2022/04/09 16:17:07;;;;;;;;;;;;;;;;;;5079656;28;20030;-56
2022/04/09 16:19:33;;;;;;;;;;;;;;;;;;5079751;28;20231;-58